Terminal Aerodrome Forecast
Issued by NWS

Home | Current Version | Previous Version | Text Only | Print | Product List | Glossary Off
Versions: 1 2 3 4 5 6 7 8 9 10 11 12 13 14 15 16 17 18

000
FTUS43 KICT 221255 AAB
TAFRSL
TAF AMD
KRSL 221255Z 2213/2312 02013KT P6SM SCT013 OVC028
     FM221430 03013KT P6SM SCT030
     FM221700 04017G22KT P6SM SKC=

USA.gov is the U.S. government's official web portal to all federal, state and local government web resources and services.